Van Cott, New York
Current Conditions -  °F | °C
As of 8:51 AM on Friday 24 Oct 2014 (Local Time) from KLGA Reporting Station
Overcast Overcast  
Wind Chill: 53°   Ceiling: 4000
Heat Index: 53°   Visibility: 10mi
Dew Point: 44°   Wind: 14mph
Humidity: 71%   Direction: 320°NW
Pressure: 29.82"   Gusts: NA
Location:  40.8778°N, 73.8721°W
Report Text: KLGA 241251Z 32012KT 10SM FEW025 BKN040 OVC250 12/07 A2982 RMK AO2 SLP098 T01170067
Loading
Personal Weather Stations






























Interactive Weather Map
Tropical Storm Tracking
New forecast layout! Learn more

10-Day Weather Forecast

Advertisements
Track Severe Weather on mobile